Aviation Digital Data Service (ADDS)

Output produced by TAFs form (0752 UTC 25 March 2017)
found at http://www.aviationweather.gov/adds/tafs/
 
METAR text: VYYY 250730Z 27006KT 8000 NSC 37/19 Q1010
Conditions at: VYYY (YANGON INTL MYAN, VN) observed 0730 UTC 25 March 2017
Temperature: 37.0°C (99°F)
Dewpoint: 19.0°C (66°F) [RH = 35%]
Pressure (altimeter): 29.82 inches Hg (1010.0 mb)
Winds: from the W (270 degrees) at 7 MPH (6 knots; 3.1 m/s)
Visibility: 5 miles (8 km)
Ceiling: at least 12,000 feet AGL
Clouds: sky clear below 12,000 feet AGL
Weather: no significant weather observed at this time

Forecast for: VYYY (YANGON INTL MYAN, VN)
Text: TAF VYYY 250500Z 2506/2606 34004KT 8000 SCT120
Forecast period: 0600 UTC 25 March 2017 to 0600 UTC 26 March 2017
Forecast type: FROM: standard forecast or significant change
Winds: from the NNW (340 degrees) at 5 MPH (4 knots; 2.1 m/s)
Visibility: 5 miles (8 km)
Clouds: scattered clouds at 12000 feet AGL
Weather: no significant weather forecast for this period
Text: TEMPO 2506/2512 22008KT 8000 FEW120
Forecast period: 0600 to 1200 UTC 25 March 2017
Forecast type: TEMPORARY: The following changes expected for less than half the time period
Winds: from the SW (220 degrees) at 9 MPH (8 knots; 4.2 m/s)
Visibility: 5 miles (8 km)
Clouds: few clouds at 12000 feet AGL
Weather: no significant weather forecast for this period